sensor_id;sensor_type;location;lat;lon;timestamp;pressure;altitude;pressure_sealevel;temperature;humidity
55217;BME280;41086;46.736;15.666;2023-07-31T00:00:59;98383.25;;;24.11;77.70
55217;BME280;41086;46.736;15.666;2023-07-31T00:03:26;98382.78;;;24.07;76.76
55217;BME280;41086;46.736;15.666;2023-07-31T00:05:52;98390.78;;;23.73;79.60
55217;BME280;41086;46.736;15.666;2023-07-31T00:08:19;98387.28;;;23.42;81.94
55217;BME280;41086;46.736;15.666;2023-07-31T00:10:45;98382.16;;;23.69;81.73
55217;BME280;41086;46.736;15.666;2023-07-31T00:13:12;98383.16;;;23.83;79.48
55217;BME280;41086;46.736;15.666;2023-07-31T00:15:39;98392.72;;;23.64;78.25
55217;BME280;41086;46.736;15.666;2023-07-31T00:18:05;98387.22;;;23.57;81.02
55217;BME280;41086;46.736;15.666;2023-07-31T00:20:32;98395.16;;;23.74;78.15
55217;BME280;41086;46.736;15.666;2023-07-31T00:22:59;98392.25;;;23.75;77.31
55217;BME280;41086;46.736;15.666;2023-07-31T00:25:25;98392.88;;;23.77;78.47
55217;BME280;41086;46.736;15.666;2023-07-31T00:27:52;98392.63;;;23.72;78.46
55217;BME280;41086;46.736;15.666;2023-07-31T00:30:18;98381.81;;;23.57;81.06
55217;BME280;41086;46.736;15.666;2023-07-31T00:32:45;98384.47;;;23.87;80.61
55217;BME280;41086;46.736;15.666;2023-07-31T00:35:12;98382.69;;;23.94;75.80
55217;BME280;41086;46.736;15.666;2023-07-31T00:37:38;98388.28;;;23.93;75.88
55217;BME280;41086;46.736;15.666;2023-07-31T00:40:05;98390.94;;;23.86;74.04
55217;BME280;41086;46.736;15.666;2023-07-31T00:42:32;98392.31;;;23.82;75.53
55217;BME280;41086;46.736;15.666;2023-07-31T00:44:59;98397.28;;;23.78;75.61
55217;BME280;41086;46.736;15.666;2023-07-31T00:47:25;98391.13;;;23.70;75.71
55217;BME280;41086;46.736;15.666;2023-07-31T00:49:52;98392.69;;;23.28;79.30
55217;BME280;41086;46.736;15.666;2023-07-31T00:52:19;98394.03;;;23.53;80.00
55217;BME280;41086;46.736;15.666;2023-07-31T00:54:46;98390.28;;;23.69;78.28
55217;BME280;41086;46.736;15.666;2023-07-31T00:57:14;98393.47;;;23.58;77.66
55217;BME280;41086;46.736;15.666;2023-07-31T00:59:41;98404.56;;;23.78;77.43
55217;BME280;41086;46.736;15.666;2023-07-31T01:02:08;98390.66;;;23.81;77.51
55217;BME280;41086;46.736;15.666;2023-07-31T01:04:35;98393.31;;;23.59;78.50
55217;BME280;41086;46.736;15.666;2023-07-31T01:07:04;98384.69;;;23.71;78.06
55217;BME280;41086;46.736;15.666;2023-07-31T01:09:40;98385.84;;;23.61;79.45
55217;BME280;41086;46.736;15.666;2023-07-31T01:12:09;98388.06;;;23.73;80.38
55217;BME280;41086;46.736;15.666;2023-07-31T01:14:39;98371.84;;;23.73;78.92
55217;BME280;41086;46.736;15.666;2023-07-31T01:17:05;98379.56;;;23.76;76.48
55217;BME280;41086;46.736;15.666;2023-07-31T01:19:32;98370.31;;;23.70;76.80
55217;BME280;41086;46.736;15.666;2023-07-31T01:27:34;98375.66;;;23.78;73.81
55217;BME280;41086;46.736;15.666;2023-07-31T01:30:08;98372.56;;;23.81;73.71
55217;BME280;41086;46.736;15.666;2023-07-31T01:32:39;98363.06;;;23.56;73.38
55217;BME280;41086;46.736;15.666;2023-07-31T01:35:07;98363.50;;;23.38;74.22
55217;BME280;41086;46.736;15.666;2023-07-31T01:37:34;98353.78;;;23.43;75.64
55217;BME280;41086;46.736;15.666;2023-07-31T01:40:01;98351.63;;;23.54;74.56
55217;BME280;41086;46.736;15.666;2023-07-31T01:42:28;98358.53;;;23.56;74.50
55217;BME280;41086;46.736;15.666;2023-07-31T01:44:55;98366.06;;;23.10;77.25
55217;BME280;41086;46.736;15.666;2023-07-31T01:47:22;98368.59;;;23.11;78.66
55217;BME280;41086;46.736;15.666;2023-07-31T01:49:50;98365.91;;;22.96;79.22
55217;BME280;41086;46.736;15.666;2023-07-31T01:52:17;98370.34;;;22.89;81.24
55217;BME280;41086;46.736;15.666;2023-07-31T01:54:44;98369.91;;;23.15;79.36
55217;BME280;41086;46.736;15.666;2023-07-31T01:57:10;98375.72;;;22.74;81.75
55217;BME280;41086;46.736;15.666;2023-07-31T01:59:37;98385.78;;;22.66;85.59
55217;BME280;41086;46.736;15.666;2023-07-31T02:02:04;98380.81;;;23.07;84.25
55217;BME280;41086;46.736;15.666;2023-07-31T02:04:30;98385.53;;;23.35;83.00
55217;BME280;41086;46.736;15.666;2023-07-31T02:06:57;98386.69;;;23.47;80.93
55217;BME280;41086;46.736;15.666;2023-07-31T02:09:24;98390.31;;;23.54;78.93
55217;BME280;41086;46.736;15.666;2023-07-31T02:11:51;98391.72;;;23.50;78.34
55217;BME280;41086;46.736;15.666;2023-07-31T02:14:18;98400.31;;;23.39;79.76
55217;BME280;41086;46.736;15.666;2023-07-31T02:16:44;98406.44;;;23.62;79.68
55217;BME280;41086;46.736;15.666;2023-07-31T02:19:11;98409.91;;;23.71;76.68
55217;BME280;41086;46.736;15.666;2023-07-31T02:21:37;98413.25;;;23.73;75.02
55217;BME280;41086;46.736;15.666;2023-07-31T02:24:04;98398.88;;;23.58;77.16
55217;BME280;41086;46.736;15.666;2023-07-31T02:26:31;98403.34;;;23.65;78.10
55217;BME280;41086;46.736;15.666;2023-07-31T02:28:57;98406.41;;;23.77;77.11
55217;BME280;41086;46.736;15.666;2023-07-31T02:31:24;98408.94;;;23.79;76.46
55217;BME280;41086;46.736;15.666;2023-07-31T02:33:51;98406.28;;;23.85;74.98
55217;BME280;41086;46.736;15.666;2023-07-31T02:36:17;98410.97;;;23.40;75.74
55217;BME280;41086;46.736;15.666;2023-07-31T02:38:44;98409.66;;;23.36;79.50
55217;BME280;41086;46.736;15.666;2023-07-31T02:41:10;98407.94;;;23.50;77.83
55217;BME280;41086;46.736;15.666;2023-07-31T02:43:38;98421.69;;;23.04;78.46
55217;BME280;41086;46.736;15.666;2023-07-31T02:46:04;98415.66;;;23.02;81.15
55217;BME280;41086;46.736;15.666;2023-07-31T02:48:31;98415.91;;;23.22;78.92
55217;BME280;41086;46.736;15.666;2023-07-31T02:50:58;98412.31;;;22.62;81.96
55217;BME280;41086;46.736;15.666;2023-07-31T02:53:24;98413.13;;;22.48;84.27
55217;BME280;41086;46.736;15.666;2023-07-31T02:55:51;98415.06;;;22.39;85.92
55217;BME280;41086;46.736;15.666;2023-07-31T02:58:18;98422.81;;;22.42;85.98
55217;BME280;41086;46.736;15.666;2023-07-31T03:00:44;98417.19;;;22.67;85.85
55217;BME280;41086;46.736;15.666;2023-07-31T03:03:11;98420.19;;;23.01;84.68
55217;BME280;41086;46.736;15.666;2023-07-31T03:05:38;98420.09;;;23.10;81.96
55217;BME280;41086;46.736;15.666;2023-07-31T03:08:05;98408.75;;;23.14;82.39
55217;BME280;41086;46.736;15.666;2023-07-31T03:10:32;98407.88;;;23.29;81.66
55217;BME280;41086;46.736;15.666;2023-07-31T03:12:58;98411.34;;;23.22;79.56
55217;BME280;41086;46.736;15.666;2023-07-31T03:15:25;98421.59;;;23.27;79.02
55217;BME280;41086;46.736;15.666;2023-07-31T03:17:51;98416.38;;;23.26;77.19
55217;BME280;41086;46.736;15.666;2023-07-31T03:20:18;98415.22;;;22.90;78.49
55217;BME280;41086;46.736;15.666;2023-07-31T03:22:45;98410.88;;;22.89;80.19
55217;BME280;41086;46.736;15.666;2023-07-31T03:25:12;98409.88;;;23.05;79.13
55217;BME280;41086;46.736;15.666;2023-07-31T03:27:39;98411.38;;;23.08;77.29
55217;BME280;41086;46.736;15.666;2023-07-31T03:30:05;98418.59;;;22.92;78.01
55217;BME280;41086;46.736;15.666;2023-07-31T03:32:32;98416.16;;;22.83;79.66
55217;BME280;41086;46.736;15.666;2023-07-31T03:34:59;98421.47;;;22.91;80.26
55217;BME280;41086;46.736;15.666;2023-07-31T03:37:26;98416.72;;;22.93;80.73
55217;BME280;41086;46.736;15.666;2023-07-31T03:39:53;98419.81;;;22.90;80.33
55217;BME280;41086;46.736;15.666;2023-07-31T03:42:19;98424.06;;;23.07;80.90
55217;BME280;41086;46.736;15.666;2023-07-31T03:44:46;98428.69;;;23.13;76.46
55217;BME280;41086;46.736;15.666;2023-07-31T03:47:12;98427.47;;;23.31;76.34
55217;BME280;41086;46.736;15.666;2023-07-31T03:49:39;98433.97;;;23.36;75.99
55217;BME280;41086;46.736;15.666;2023-07-31T03:52:06;98431.84;;;23.17;74.77
55217;BME280;41086;46.736;15.666;2023-07-31T03:54:33;98431.66;;;23.33;73.20
55217;BME280;41086;46.736;15.666;2023-07-31T03:56:59;98431.38;;;23.28;73.01
55217;BME280;41086;46.736;15.666;2023-07-31T03:59:26;98439.94;;;22.87;74.05
55217;BME280;41086;46.736;15.666;2023-07-31T04:01:52;98442.25;;;22.38;76.84
55217;BME280;41086;46.736;15.666;2023-07-31T04:04:19;98444.28;;;22.12;80.58
55217;BME280;41086;46.736;15.666;2023-07-31T04:06:45;98439.16;;;22.26;81.22
55217;BME280;41086;46.736;15.666;2023-07-31T04:09:12;98435.88;;;22.07;80.18
55217;BME280;41086;46.736;15.666;2023-07-31T04:11:39;98438.44;;;22.01;80.94
55217;BME280;41086;46.736;15.666;2023-07-31T04:14:05;98439.31;;;21.93;81.41
55217;BME280;41086;46.736;15.666;2023-07-31T04:16:32;98438.06;;;22.35;81.36
55217;BME280;41086;46.736;15.666;2023-07-31T04:18:59;98441.75;;;22.57;78.38
55217;BME280;41086;46.736;15.666;2023-07-31T04:21:25;98441.41;;;22.75;79.29
55217;BME280;41086;46.736;15.666;2023-07-31T04:23:52;98440.38;;;22.91;77.20
55217;BME280;41086;46.736;15.666;2023-07-31T04:26:22;98444.31;;;22.88;75.64
55217;BME280;41086;46.736;15.666;2023-07-31T04:28:48;98440.22;;;22.77;77.04
55217;BME280;41086;46.736;15.666;2023-07-31T04:31:15;98439.31;;;23.00;77.99
55217;BME280;41086;46.736;15.666;2023-07-31T04:33:42;98438.38;;;23.22;75.77
55217;BME280;41086;46.736;15.666;2023-07-31T04:36:08;98434.88;;;23.07;75.97
55217;BME280;41086;46.736;15.666;2023-07-31T04:38:35;98440.34;;;23.14;76.17
55217;BME280;41086;46.736;15.666;2023-07-31T04:41:01;98437.09;;;23.18;76.02
55217;BME280;41086;46.736;15.666;2023-07-31T04:43:28;98441.38;;;23.28;76.41
55217;BME280;41086;46.736;15.666;2023-07-31T04:45:55;98443.41;;;23.40;76.31
55217;BME280;41086;46.736;15.666;2023-07-31T04:48:22;98443.09;;;23.50;74.45
55217;BME280;41086;46.736;15.666;2023-07-31T04:50:49;98447.47;;;23.66;74.80
55217;BME280;41086;46.736;15.666;2023-07-31T04:53:15;98446.16;;;23.77;74.31
55217;BME280;41086;46.736;15.666;2023-07-31T04:55:42;98457.09;;;23.83;74.46
55217;BME280;41086;46.736;15.666;2023-07-31T04:58:09;98450.63;;;23.84;74.99
55217;BME280;41086;46.736;15.666;2023-07-31T05:00:35;98451.56;;;23.92;74.55
55217;BME280;41086;46.736;15.666;2023-07-31T05:03:02;98451.22;;;24.01;74.32
55217;BME280;41086;46.736;15.666;2023-07-31T05:05:29;98448.47;;;24.16;74.17
55217;BME280;41086;46.736;15.666;2023-07-31T05:07:55;98448.66;;;24.15;75.31
55217;BME280;41086;46.736;15.666;2023-07-31T05:10:22;98444.09;;;23.64;76.17
55217;BME280;41086;46.736;15.666;2023-07-31T05:12:48;98449.13;;;23.97;77.71
55217;BME280;41086;46.736;15.666;2023-07-31T05:15:15;98447.50;;;24.02;77.11
55217;BME280;41086;46.736;15.666;2023-07-31T05:17:42;98449.22;;;24.10;76.55
55217;BME280;41086;46.736;15.666;2023-07-31T05:20:08;98456.53;;;24.09;77.84
55217;BME280;41086;46.736;15.666;2023-07-31T05:22:35;98469.06;;;24.32;78.70
55217;BME280;41086;46.736;15.666;2023-07-31T05:25:02;98471.00;;;24.60;76.67
55217;BME280;41086;46.736;15.666;2023-07-31T05:27:28;98468.00;;;24.76;76.65
55217;BME280;41086;46.736;15.666;2023-07-31T05:29:56;98470.34;;;24.86;74.65
55217;BME280;41086;46.736;15.666;2023-07-31T05:32:23;98472.53;;;24.97;74.43
55217;BME280;41086;46.736;15.666;2023-07-31T05:34:52;98472.06;;;24.87;74.16
55217;BME280;41086;46.736;15.666;2023-07-31T05:37:19;98471.19;;;25.14;75.92
55217;BME280;41086;46.736;15.666;2023-07-31T05:39:46;98482.63;;;25.10;74.20
55217;BME280;41086;46.736;15.666;2023-07-31T05:42:13;98476.75;;;25.28;75.12
55217;BME280;41086;46.736;15.666;2023-07-31T05:44:39;98481.84;;;25.51;74.79
55217;BME280;41086;46.736;15.666;2023-07-31T05:47:06;98487.13;;;25.59;73.00
55217;BME280;41086;46.736;15.666;2023-07-31T05:49:32;98489.22;;;25.22;73.04
55217;BME280;41086;46.736;15.666;2023-07-31T05:51:59;98485.78;;;25.41;71.84
55217;BME280;41086;46.736;15.666;2023-07-31T05:54:25;98493.91;;;25.41;71.08
55217;BME280;41086;46.736;15.666;2023-07-31T05:56:52;98488.50;;;25.48;71.43
55217;BME280;41086;46.736;15.666;2023-07-31T05:59:19;98494.25;;;25.67;71.00
55217;BME280;41086;46.736;15.666;2023-07-31T06:01:45;98496.06;;;25.88;70.41
55217;BME280;41086;46.736;15.666;2023-07-31T06:04:12;98503.00;;;26.03;69.75
55217;BME280;41086;46.736;15.666;2023-07-31T06:06:39;98505.75;;;26.30;69.57
55217;BME280;41086;46.736;15.666;2023-07-31T06:09:06;98511.91;;;26.59;70.39
55217;BME280;41086;46.736;15.666;2023-07-31T06:11:33;98502.94;;;26.78;69.42
55217;BME280;41086;46.736;15.666;2023-07-31T06:14:00;98512.97;;;26.91;67.77
55217;BME280;41086;46.736;15.666;2023-07-31T06:16:26;98506.91;;;27.02;67.42
55217;BME280;41086;46.736;15.666;2023-07-31T06:18:53;98505.00;;;27.16;67.88
55217;BME280;41086;46.736;15.666;2023-07-31T06:21:20;98515.88;;;27.36;66.92
55217;BME280;41086;46.736;15.666;2023-07-31T06:23:47;98507.94;;;27.28;66.45
55217;BME280;41086;46.736;15.666;2023-07-31T06:26:13;98503.09;;;27.50;66.98
55217;BME280;41086;46.736;15.666;2023-07-31T06:28:40;98508.25;;;27.71;64.27
55217;BME280;41086;46.736;15.666;2023-07-31T06:31:06;98512.84;;;27.84;64.54
55217;BME280;41086;46.736;15.666;2023-07-31T06:33:34;98501.75;;;27.86;62.70
55217;BME280;41086;46.736;15.666;2023-07-31T06:36:00;98494.72;;;28.10;62.52
55217;BME280;41086;46.736;15.666;2023-07-31T06:38:27;98503.06;;;28.15;63.28
55217;BME280;41086;46.736;15.666;2023-07-31T06:40:53;98505.72;;;28.28;62.32
55217;BME280;41086;46.736;15.666;2023-07-31T06:43:20;98507.53;;;28.47;60.43
55217;BME280;41086;46.736;15.666;2023-07-31T06:45:47;98502.38;;;28.64;60.29
55217;BME280;41086;46.736;15.666;2023-07-31T06:48:17;98502.19;;;28.59;60.96
55217;BME280;41086;46.736;15.666;2023-07-31T06:50:43;98501.81;;;28.81;60.51
55217;BME280;41086;46.736;15.666;2023-07-31T06:53:10;98500.03;;;28.93;59.59
55217;BME280;41086;46.736;15.666;2023-07-31T06:55:36;98504.00;;;29.22;59.06
55217;BME280;41086;46.736;15.666;2023-07-31T06:58:03;98500.16;;;29.30;58.49
55217;BME280;41086;46.736;15.666;2023-07-31T07:00:30;98488.84;;;29.45;57.69
55217;BME280;41086;46.736;15.666;2023-07-31T07:02:56;98498.06;;;29.69;56.43
55217;BME280;41086;46.736;15.666;2023-07-31T07:05:23;98498.50;;;29.84;55.96
55217;BME280;41086;46.736;15.666;2023-07-31T07:07:50;98494.50;;;29.87;55.09
55217;BME280;41086;46.736;15.666;2023-07-31T07:10:18;98486.06;;;29.88;55.28
55217;BME280;41086;46.736;15.666;2023-07-31T07:12:45;98492.81;;;29.86;54.38
55217;BME280;41086;46.736;15.666;2023-07-31T07:15:12;98489.19;;;30.22;53.31
55217;BME280;41086;46.736;15.666;2023-07-31T07:17:39;98479.69;;;30.55;53.23
55217;BME280;41086;46.736;15.666;2023-07-31T07:20:05;98486.13;;;30.60;54.10
55217;BME280;41086;46.736;15.666;2023-07-31T07:22:32;98481.00;;;30.64;50.84
55217;BME280;41086;46.736;15.666;2023-07-31T07:24:59;98476.97;;;30.66;52.27
55217;BME280;41086;46.736;15.666;2023-07-31T07:27:25;98478.66;;;30.67;50.97
55217;BME280;41086;46.736;15.666;2023-07-31T07:29:52;98486.94;;;30.49;50.06
55217;BME280;41086;46.736;15.666;2023-07-31T07:32:20;98477.28;;;30.46;50.56
55217;BME280;41086;46.736;15.666;2023-07-31T07:34:47;98481.59;;;30.66;49.55
55217;BME280;41086;46.736;15.666;2023-07-31T07:37:14;98478.47;;;30.92;47.88
55217;BME280;41086;46.736;15.666;2023-07-31T07:39:41;98475.94;;;31.26;46.79
55217;BME280;41086;46.736;15.666;2023-07-31T07:42:07;98473.13;;;31.09;46.32
55217;BME280;41086;46.736;15.666;2023-07-31T07:44:34;98480.66;;;30.72;44.87
55217;BME280;41086;46.736;15.666;2023-07-31T07:47:00;98470.59;;;31.08;45.16
55217;BME280;41086;46.736;15.666;2023-07-31T07:49:27;98476.56;;;30.93;46.06
55217;BME280;41086;46.736;15.666;2023-07-31T07:51:54;98482.59;;;31.54;44.67
55217;BME280;41086;46.736;15.666;2023-07-31T07:54:20;98477.53;;;31.86;44.01
55217;BME280;41086;46.736;15.666;2023-07-31T07:56:47;98468.44;;;32.09;43.20
55217;BME280;41086;46.736;15.666;2023-07-31T07:59:14;98466.75;;;32.08;43.22
55217;BME280;41086;46.736;15.666;2023-07-31T08:01:41;98469.31;;;31.98;41.85
55217;BME280;41086;46.736;15.666;2023-07-31T08:04:07;98471.66;;;32.06;42.08
55217;BME280;41086;46.736;15.666;2023-07-31T08:06:34;98481.13;;;31.87;41.58
55217;BME280;41086;46.736;15.666;2023-07-31T08:09:00;98474.56;;;32.28;41.36
55217;BME280;41086;46.736;15.666;2023-07-31T08:11:32;98467.75;;;32.31;41.38
55217;BME280;41086;46.736;15.666;2023-07-31T08:13:59;98466.56;;;32.27;41.10
55217;BME280;41086;46.736;15.666;2023-07-31T08:16:25;98474.47;;;32.69;39.66
55217;BME280;41086;46.736;15.666;2023-07-31T08:18:52;98465.31;;;32.63;40.04
55217;BME280;41086;46.736;15.666;2023-07-31T08:21:19;98473.78;;;32.78;39.80
55217;BME280;41086;46.736;15.666;2023-07-31T08:23:46;98467.75;;;33.10;39.78
55217;BME280;41086;46.736;15.666;2023-07-31T08:26:16;98470.88;;;33.19;39.79
55217;BME280;41086;46.736;15.666;2023-07-31T08:28:43;98471.03;;;32.95;38.00
55217;BME280;41086;46.736;15.666;2023-07-31T08:31:10;98469.47;;;33.16;38.47
55217;BME280;41086;46.736;15.666;2023-07-31T08:33:37;98475.34;;;33.25;37.84
55217;BME280;41086;46.736;15.666;2023-07-31T08:36:04;98473.53;;;33.14;38.63
55217;BME280;41086;46.736;15.666;2023-07-31T08:38:31;98471.16;;;33.17;39.14
55217;BME280;41086;46.736;15.666;2023-07-31T08:40:58;98469.75;;;33.53;38.04
55217;BME280;41086;46.736;15.666;2023-07-31T08:43:27;98471.38;;;33.71;38.01
55217;BME280;41086;46.736;15.666;2023-07-31T08:45:54;98467.22;;;33.69;37.13
55217;BME280;41086;46.736;15.666;2023-07-31T08:48:21;98467.16;;;33.64;37.46
55217;BME280;41086;46.736;15.666;2023-07-31T08:50:48;98456.88;;;33.37;36.84
55217;BME280;41086;46.736;15.666;2023-07-31T08:53:15;98453.16;;;33.26;37.41
55217;BME280;41086;46.736;15.666;2023-07-31T08:55:43;98446.78;;;32.70;38.42
55217;BME280;41086;46.736;15.666;2023-07-31T08:58:10;98442.78;;;32.78;38.95
55217;BME280;41086;46.736;15.666;2023-07-31T09:00:38;98455.75;;;33.16;39.20
55217;BME280;41086;46.736;15.666;2023-07-31T09:03:11;98440.75;;;33.24;39.00
55217;BME280;41086;46.736;15.666;2023-07-31T09:05:40;98446.09;;;33.14;38.82
55217;BME280;41086;46.736;15.666;2023-07-31T09:08:08;98449.69;;;33.53;38.21
55217;BME280;41086;46.736;15.666;2023-07-31T09:10:39;98447.03;;;33.58;38.35
55217;BME280;41086;46.736;15.666;2023-07-31T09:13:07;98447.53;;;33.55;39.90
55217;BME280;41086;46.736;15.666;2023-07-31T09:15:38;98443.22;;;34.08;38.39
55217;BME280;41086;46.736;15.666;2023-07-31T09:18:05;98445.84;;;34.25;37.41
55217;BME280;41086;46.736;15.666;2023-07-31T09:20:32;98449.94;;;33.73;37.70
55217;BME280;41086;46.736;15.666;2023-07-31T09:23:04;98449.53;;;34.36;37.23
55217;BME280;41086;46.736;15.666;2023-07-31T09:25:31;98452.53;;;34.56;36.65
55217;BME280;41086;46.736;15.666;2023-07-31T09:27:59;98452.09;;;34.42;36.63
55217;BME280;41086;46.736;15.666;2023-07-31T09:30:26;98445.97;;;34.62;36.97
55217;BME280;41086;46.736;15.666;2023-07-31T09:33:00;98450.34;;;34.36;36.41
55217;BME280;41086;46.736;15.666;2023-07-31T09:35:31;98445.59;;;34.54;36.77
55217;BME280;41086;46.736;15.666;2023-07-31T09:37:59;98451.28;;;34.74;36.11
55217;BME280;41086;46.736;15.666;2023-07-31T09:40:29;98446.06;;;35.10;35.71
55217;BME280;41086;46.736;15.666;2023-07-31T09:43:00;98440.25;;;34.69;34.70
55217;BME280;41086;46.736;15.666;2023-07-31T09:45:27;98433.78;;;34.91;35.52
55217;BME280;41086;46.736;15.666;2023-07-31T09:48:07;98433.53;;;35.35;35.56
55217;BME280;41086;46.736;15.666;2023-07-31T09:50:38;98431.91;;;35.01;34.52
55217;BME280;41086;46.736;15.666;2023-07-31T09:53:06;98434.03;;;34.84;34.41
55217;BME280;41086;46.736;15.666;2023-07-31T09:55:33;98433.59;;;34.65;34.55
55217;BME280;41086;46.736;15.666;2023-07-31T09:58:02;98429.97;;;34.59;36.06
55217;BME280;41086;46.736;15.666;2023-07-31T10:00:30;98430.72;;;34.87;34.26
55217;BME280;41086;46.736;15.666;2023-07-31T10:02:58;98427.47;;;34.95;34.73
55217;BME280;41086;46.736;15.666;2023-07-31T10:05:27;98419.28;;;35.48;34.36
55217;BME280;41086;46.736;15.666;2023-07-31T10:07:56;98411.44;;;35.24;33.68
55217;BME280;41086;46.736;15.666;2023-07-31T10:10:23;98410.13;;;35.32;33.54
55217;BME280;41086;46.736;15.666;2023-07-31T10:12:54;98396.41;;;35.52;34.12
55217;BME280;41086;46.736;15.666;2023-07-31T10:15:22;98404.94;;;36.24;33.65
55217;BME280;41086;46.736;15.666;2023-07-31T10:17:49;98405.47;;;36.31;33.31
55217;BME280;41086;46.736;15.666;2023-07-31T10:20:16;98396.78;;;35.71;33.31
55217;BME280;41086;46.736;15.666;2023-07-31T10:22:43;98389.22;;;35.41;33.58
55217;BME280;41086;46.736;15.666;2023-07-31T10:25:12;98386.69;;;36.03;33.58
55217;BME280;41086;46.736;15.666;2023-07-31T10:27:39;98383.97;;;36.08;33.26
55217;BME280;41086;46.736;15.666;2023-07-31T10:30:07;98387.28;;;36.30;33.84
55217;BME280;41086;46.736;15.666;2023-07-31T10:32:34;98376.19;;;35.94;31.51
55217;BME280;41086;46.736;15.666;2023-07-31T10:35:03;98381.50;;;35.43;32.85
55217;BME280;41086;46.736;15.666;2023-07-31T10:37:36;98378.56;;;35.60;34.33
55217;BME280;41086;46.736;15.666;2023-07-31T10:40:04;98374.13;;;35.54;34.70
55217;BME280;41086;46.736;15.666;2023-07-31T10:42:36;98375.75;;;35.50;32.61
55217;BME280;41086;46.736;15.666;2023-07-31T10:45:04;98372.53;;;35.68;33.27
55217;BME280;41086;46.736;15.666;2023-07-31T10:47:36;98368.50;;;36.12;33.09
55217;BME280;41086;46.736;15.666;2023-07-31T10:50:19;98370.88;;;35.62;31.95
55217;BME280;41086;46.736;15.666;2023-07-31T10:52:47;98361.59;;;35.31;32.17
55217;BME280;41086;46.736;15.666;2023-07-31T10:57:47;98362.09;;;35.81;32.96
55217;BME280;41086;46.736;15.666;2023-07-31T11:00:27;98354.09;;;35.79;32.48
55217;BME280;41086;46.736;15.666;2023-07-31T11:03:10;98362.72;;;36.24;31.82
55217;BME280;41086;46.736;15.666;2023-07-31T11:05:46;98346.44;;;36.22;31.47
55217;BME280;41086;46.736;15.666;2023-07-31T11:08:13;98344.50;;;36.74;31.46
55217;BME280;41086;46.736;15.666;2023-07-31T11:10:40;98343.44;;;36.59;32.64
55217;BME280;41086;46.736;15.666;2023-07-31T11:13:07;98348.09;;;36.69;33.81
55217;BME280;41086;46.736;15.666;2023-07-31T11:15:35;98348.31;;;37.03;33.06
55217;BME280;41086;46.736;15.666;2023-07-31T11:18:01;98345.53;;;37.14;31.82
55217;BME280;41086;46.736;15.666;2023-07-31T11:20:37;98348.91;;;36.34;33.17
55217;BME280;41086;46.736;15.666;2023-07-31T11:23:06;98335.69;;;36.61;33.73
55217;BME280;41086;46.736;15.666;2023-07-31T11:25:33;98337.59;;;36.05;32.40
55217;BME280;41086;46.736;15.666;2023-07-31T11:30:31;98336.47;;;36.01;33.22
55217;BME280;41086;46.736;15.666;2023-07-31T11:32:58;98338.44;;;36.26;32.10
55217;BME280;41086;46.736;15.666;2023-07-31T11:35:24;98336.47;;;36.82;32.48
55217;BME280;41086;46.736;15.666;2023-07-31T11:37:52;98331.94;;;37.28;32.22
55217;BME280;41086;46.736;15.666;2023-07-31T11:40:20;98328.25;;;37.42;31.35
55217;BME280;41086;46.736;15.666;2023-07-31T11:42:51;98317.81;;;37.29;31.01
55217;BME280;41086;46.736;15.666;2023-07-31T11:45:18;98313.56;;;36.82;32.60
55217;BME280;41086;46.736;15.666;2023-07-31T11:47:45;98297.38;;;37.30;32.02
55217;BME280;41086;46.736;15.666;2023-07-31T11:50:12;98299.84;;;37.32;31.97
55217;BME280;41086;46.736;15.666;2023-07-31T11:52:42;98299.31;;;37.84;33.77
55217;BME280;41086;46.736;15.666;2023-07-31T11:55:10;98285.19;;;37.81;30.05
55217;BME280;41086;46.736;15.666;2023-07-31T11:57:38;98290.06;;;37.60;30.15
55217;BME280;41086;46.736;15.666;2023-07-31T12:00:09;98283.34;;;37.71;31.05
55217;BME280;41086;46.736;15.666;2023-07-31T12:02:37;98292.47;;;37.22;28.09
55217;BME280;41086;46.736;15.666;2023-07-31T12:05:06;98283.56;;;37.30;29.13
55217;BME280;41086;46.736;15.666;2023-07-31T12:07:43;98279.28;;;36.93;30.02
55217;BME280;41086;46.736;15.666;2023-07-31T12:10:10;98274.31;;;37.06;29.53
55217;BME280;41086;46.736;15.666;2023-07-31T12:12:36;98272.47;;;36.70;30.62
55217;BME280;41086;46.736;15.666;2023-07-31T12:15:07;98266.38;;;37.43;29.91
55217;BME280;41086;46.736;15.666;2023-07-31T12:17:39;98270.09;;;37.13;29.55
55217;BME280;41086;46.736;15.666;2023-07-31T12:20:06;98268.47;;;37.12;30.81
55217;BME280;41086;46.736;15.666;2023-07-31T12:22:33;98249.16;;;36.97;30.37
55217;BME280;41086;46.736;15.666;2023-07-31T12:25:00;98249.34;;;37.21;30.98
55217;BME280;41086;46.736;15.666;2023-07-31T12:27:32;98246.75;;;36.80;30.48
55217;BME280;41086;46.736;15.666;2023-07-31T12:29:58;98239.69;;;36.33;30.89
55217;BME280;41086;46.736;15.666;2023-07-31T12:32:25;98249.84;;;36.68;32.08
55217;BME280;41086;46.736;15.666;2023-07-31T12:34:55;98243.78;;;36.56;30.73
55217;BME280;41086;46.736;15.666;2023-07-31T12:37:25;98234.66;;;36.50;31.57
55217;BME280;41086;46.736;15.666;2023-07-31T12:39:51;98228.03;;;37.26;30.56
55217;BME280;41086;46.736;15.666;2023-07-31T12:42:18;98219.47;;;37.73;30.42
55217;BME280;41086;46.736;15.666;2023-07-31T12:44:44;98204.56;;;37.24;30.16
55217;BME280;41086;46.736;15.666;2023-07-31T12:47:11;98199.72;;;37.00;30.96
55217;BME280;41086;46.736;15.666;2023-07-31T12:49:38;98194.41;;;37.59;31.39
55217;BME280;41086;46.736;15.666;2023-07-31T12:52:05;98189.59;;;37.75;31.20
55217;BME280;41086;46.736;15.666;2023-07-31T12:54:32;98188.94;;;37.88;30.67
55217;BME280;41086;46.736;15.666;2023-07-31T12:56:58;98180.53;;;38.03;31.23
55217;BME280;41086;46.736;15.666;2023-07-31T12:59:25;98177.88;;;37.54;31.43
55217;BME280;41086;46.736;15.666;2023-07-31T13:01:51;98174.50;;;37.62;31.02